sensor_id;sensor_type;location;lat;lon;timestamp;P1;durP1;ratioP1;P2;durP2;ratioP2
4700;SDS011;8724;51.272;6.554;2023-10-13T00:01:06;8.23;;;5.30;;
4700;SDS011;8724;51.272;6.554;2023-10-13T00:03:38;7.90;;;6.27;;
4700;SDS011;8724;51.272;6.554;2023-10-13T00:06:06;6.57;;;5.23;;
4700;SDS011;8724;51.272;6.554;2023-10-13T00:08:35;5.40;;;4.90;;
4700;SDS011;8724;51.272;6.554;2023-10-13T00:11:05;8.13;;;5.47;;
4700;SDS011;8724;51.272;6.554;2023-10-13T00:13:37;7.80;;;4.53;;
4700;SDS011;8724;51.272;6.554;2023-10-13T00:16:09;11.20;;;5.50;;
4700;SDS011;8724;51.272;6.554;2023-10-13T00:18:44;7.07;;;5.40;;
4700;SDS011;8724;51.272;6.554;2023-10-13T00:21:12;5.37;;;4.77;;
4700;SDS011;8724;51.272;6.554;2023-10-13T00:23:42;5.57;;;5.03;;
4700;SDS011;8724;51.272;6.554;2023-10-13T00:26:19;5.30;;;4.80;;
4700;SDS011;8724;51.272;6.554;2023-10-13T00:28:57;11.77;;;4.90;;
4700;SDS011;8724;51.272;6.554;2023-10-13T00:31:36;6.93;;;5.23;;
4700;SDS011;8724;51.272;6.554;2023-10-13T00:34:07;5.43;;;4.90;;
4700;SDS011;8724;51.272;6.554;2023-10-13T00:36:45;6.33;;;4.27;;
4700;SDS011;8724;51.272;6.554;2023-10-13T00:39:37;7.90;;;6.00;;
4700;SDS011;8724;51.272;6.554;2023-10-13T00:42:11;5.53;;;4.90;;
4700;SDS011;8724;51.272;6.554;2023-10-13T00:44:47;7.47;;;5.03;;
4700;SDS011;8724;51.272;6.554;2023-10-13T00:47:16;6.30;;;5.03;;
4700;SDS011;8724;51.272;6.554;2023-10-13T00:49:59;6.00;;;4.97;;
4700;SDS011;8724;51.272;6.554;2023-10-13T00:52:27;6.30;;;5.00;;
4700;SDS011;8724;51.272;6.554;2023-10-13T00:54:56;5.53;;;5.03;;
4700;SDS011;8724;51.272;6.554;2023-10-13T00:57:26;5.80;;;4.50;;
4700;SDS011;8724;51.272;6.554;2023-10-13T00:59:55;5.47;;;4.97;;
4700;SDS011;8724;51.272;6.554;2023-10-13T01:02:24;5.53;;;5.00;;
4700;SDS011;8724;51.272;6.554;2023-10-13T01:05:04;6.63;;;5.00;;
4700;SDS011;8724;51.272;6.554;2023-10-13T01:07:36;9.40;;;5.50;;
4700;SDS011;8724;51.272;6.554;2023-10-13T01:10:04;7.90;;;4.93;;
4700;SDS011;8724;51.272;6.554;2023-10-13T01:12:40;5.10;;;4.70;;
4700;SDS011;8724;51.272;6.554;2023-10-13T01:15:11;7.23;;;5.67;;
4700;SDS011;8724;51.272;6.554;2023-10-13T01:17:43;5.50;;;4.37;;
4700;SDS011;8724;51.272;6.554;2023-10-13T01:20:11;5.10;;;4.60;;
4700;SDS011;8724;51.272;6.554;2023-10-13T01:22:45;6.40;;;4.37;;
4700;SDS011;8724;51.272;6.554;2023-10-13T01:25:23;8.30;;;4.47;;
4700;SDS011;8724;51.272;6.554;2023-10-13T01:27:53;5.10;;;4.43;;
4700;SDS011;8724;51.272;6.554;2023-10-13T01:30:20;6.23;;;5.63;;
4700;SDS011;8724;51.272;6.554;2023-10-13T01:32:51;7.50;;;4.80;;
4700;SDS011;8724;51.272;6.554;2023-10-13T01:35:20;7.40;;;4.60;;
4700;SDS011;8724;51.272;6.554;2023-10-13T01:37:53;6.07;;;4.70;;
4700;SDS011;8724;51.272;6.554;2023-10-13T01:40:20;4.80;;;4.40;;
4700;SDS011;8724;51.272;6.554;2023-10-13T01:42:56;10.43;;;4.93;;
4700;SDS011;8724;51.272;6.554;2023-10-13T01:45:23;6.17;;;4.97;;
4700;SDS011;8724;51.272;6.554;2023-10-13T01:47:55;6.13;;;4.77;;
4700;SDS011;8724;51.272;6.554;2023-10-13T01:50:23;6.80;;;4.53;;
4700;SDS011;8724;51.272;6.554;2023-10-13T01:52:56;7.53;;;5.20;;
4700;SDS011;8724;51.272;6.554;2023-10-13T01:55:37;6.10;;;4.83;;
4700;SDS011;8724;51.272;6.554;2023-10-13T01:58:11;5.63;;;5.00;;
4700;SDS011;8724;51.272;6.554;2023-10-13T02:00:46;5.53;;;5.03;;
4700;SDS011;8724;51.272;6.554;2023-10-13T02:03:14;6.03;;;4.43;;
4700;SDS011;8724;51.272;6.554;2023-10-13T02:05:44;5.00;;;4.50;;
4700;SDS011;8724;51.272;6.554;2023-10-13T02:08:14;4.87;;;4.43;;
4700;SDS011;8724;51.272;6.554;2023-10-13T02:10:49;6.30;;;5.00;;
4700;SDS011;8724;51.272;6.554;2023-10-13T02:13:18;4.77;;;4.30;;
4700;SDS011;8724;51.272;6.554;2023-10-13T02:15:49;8.07;;;5.20;;
4700;SDS011;8724;51.272;6.554;2023-10-13T02:18:23;7.90;;;4.63;;
4700;SDS011;8724;51.272;6.554;2023-10-13T02:20:53;5.40;;;4.13;;
4700;SDS011;8724;51.272;6.554;2023-10-13T02:23:22;4.70;;;4.30;;
4700;SDS011;8724;51.272;6.554;2023-10-13T02:25:51;5.27;;;4.63;;
4700;SDS011;8724;51.272;6.554;2023-10-13T02:28:28;7.43;;;4.97;;
4700;SDS011;8724;51.272;6.554;2023-10-13T02:31:01;5.00;;;3.67;;
4700;SDS011;8724;51.272;6.554;2023-10-13T02:33:29;6.93;;;4.77;;
4700;SDS011;8724;51.272;6.554;2023-10-13T02:35:58;5.20;;;4.70;;
4700;SDS011;8724;51.272;6.554;2023-10-13T02:38:30;5.03;;;4.53;;
4700;SDS011;8724;51.272;6.554;2023-10-13T02:41:10;6.17;;;4.47;;
4700;SDS011;8724;51.272;6.554;2023-10-13T02:43:39;5.27;;;4.30;;
4700;SDS011;8724;51.272;6.554;2023-10-13T02:46:09;4.40;;;4.00;;
4700;SDS011;8724;51.272;6.554;2023-10-13T02:48:37;4.60;;;4.20;;
4700;SDS011;8724;51.272;6.554;2023-10-13T02:51:08;4.70;;;3.90;;
4700;SDS011;8724;51.272;6.554;2023-10-13T02:53:42;6.90;;;4.30;;
4700;SDS011;8724;51.272;6.554;2023-10-13T02:56:13;4.87;;;4.10;;
4700;SDS011;8724;51.272;6.554;2023-10-13T02:58:48;4.70;;;4.20;;
4700;SDS011;8724;51.272;6.554;2023-10-13T03:01:23;6.70;;;4.53;;
4700;SDS011;8724;51.272;6.554;2023-10-13T03:03:55;5.00;;;4.53;;
4700;SDS011;8724;51.272;6.554;2023-10-13T03:06:26;4.43;;;4.03;;
4700;SDS011;8724;51.272;6.554;2023-10-13T03:08:59;5.90;;;4.60;;
4700;SDS011;8724;51.272;6.554;2023-10-13T03:11:40;5.80;;;4.77;;
4700;SDS011;8724;51.272;6.554;2023-10-13T03:14:10;4.77;;;4.30;;
4700;SDS011;8724;51.272;6.554;2023-10-13T03:16:51;5.43;;;4.47;;
4700;SDS011;8724;51.272;6.554;2023-10-13T03:19:20;5.27;;;4.80;;
4700;SDS011;8724;51.272;6.554;2023-10-13T03:21:49;6.77;;;5.03;;
4700;SDS011;8724;51.272;6.554;2023-10-13T03:24:21;6.13;;;5.00;;
4700;SDS011;8724;51.272;6.554;2023-10-13T03:26:59;6.13;;;4.10;;
4700;SDS011;8724;51.272;6.554;2023-10-13T03:29:37;8.83;;;4.17;;
4700;SDS011;8724;51.272;6.554;2023-10-13T03:32:09;5.97;;;5.37;;
4700;SDS011;8724;51.272;6.554;2023-10-13T03:34:41;6.03;;;4.30;;
4700;SDS011;8724;51.272;6.554;2023-10-13T03:37:37;8.30;;;5.20;;
4700;SDS011;8724;51.272;6.554;2023-10-13T03:40:06;7.00;;;4.90;;
4700;SDS011;8724;51.272;6.554;2023-10-13T03:42:57;4.87;;;4.17;;
4700;SDS011;8724;51.272;6.554;2023-10-13T03:45:33;6.37;;;4.20;;
4700;SDS011;8724;51.272;6.554;2023-10-13T03:48:06;6.50;;;5.50;;
4700;SDS011;8724;51.272;6.554;2023-10-13T03:50:47;4.43;;;4.03;;
4700;SDS011;8724;51.272;6.554;2023-10-13T03:53:24;6.40;;;5.20;;
4700;SDS011;8724;51.272;6.554;2023-10-13T03:55:52;6.90;;;5.57;;
4700;SDS011;8724;51.272;6.554;2023-10-13T03:58:34;8.10;;;4.40;;
4700;SDS011;8724;51.272;6.554;2023-10-13T04:01:06;5.60;;;4.63;;
4700;SDS011;8724;51.272;6.554;2023-10-13T04:03:36;6.50;;;4.87;;
4700;SDS011;8724;51.272;6.554;2023-10-13T04:06:23;7.13;;;4.47;;
4700;SDS011;8724;51.272;6.554;2023-10-13T04:09:15;5.10;;;4.47;;
4700;SDS011;8724;51.272;6.554;2023-10-13T04:12:02;4.40;;;4.10;;
4700;SDS011;8724;51.272;6.554;2023-10-13T04:14:46;5.63;;;5.07;;
4700;SDS011;8724;51.272;6.554;2023-10-13T04:17:42;6.40;;;5.10;;
4700;SDS011;8724;51.272;6.554;2023-10-13T04:20:12;6.13;;;5.07;;
4700;SDS011;8724;51.272;6.554;2023-10-13T04:22:53;8.90;;;5.20;;
4700;SDS011;8724;51.272;6.554;2023-10-13T04:25:35;7.83;;;4.60;;
4700;SDS011;8724;51.272;6.554;2023-10-13T04:28:18;5.57;;;5.00;;
4700;SDS011;8724;51.272;6.554;2023-10-13T04:31:01;7.40;;;5.40;;
4700;SDS011;8724;51.272;6.554;2023-10-13T04:33:39;5.40;;;4.90;;
4700;SDS011;8724;51.272;6.554;2023-10-13T04:36:19;7.80;;;3.93;;
4700;SDS011;8724;51.272;6.554;2023-10-13T04:39:11;5.50;;;4.20;;
4700;SDS011;8724;51.272;6.554;2023-10-13T04:41:55;4.33;;;3.93;;
4700;SDS011;8724;51.272;6.554;2023-10-13T04:44:39;6.77;;;4.10;;
4700;SDS011;8724;51.272;6.554;2023-10-13T04:47:19;6.30;;;3.80;;
4700;SDS011;8724;51.272;6.554;2023-10-13T04:49:50;5.03;;;4.53;;
4700;SDS011;8724;51.272;6.554;2023-10-13T04:52:19;4.20;;;3.90;;
4700;SDS011;8724;51.272;6.554;2023-10-13T04:55:17;5.47;;;5.00;;
4700;SDS011;8724;51.272;6.554;2023-10-13T04:58:14;7.10;;;4.20;;
4700;SDS011;8724;51.272;6.554;2023-10-13T05:01:03;12.03;;;5.47;;
4700;SDS011;8724;51.272;6.554;2023-10-13T05:03:49;4.40;;;4.03;;
4700;SDS011;8724;51.272;6.554;2023-10-13T05:06:36;5.47;;;4.40;;
4700;SDS011;8724;51.272;6.554;2023-10-13T05:09:21;10.23;;;5.73;;
4700;SDS011;8724;51.272;6.554;2023-10-13T05:12:06;7.93;;;4.77;;
4700;SDS011;8724;51.272;6.554;2023-10-13T05:14:52;8.87;;;5.00;;
4700;SDS011;8724;51.272;6.554;2023-10-13T05:17:38;4.97;;;4.47;;
4700;SDS011;8724;51.272;6.554;2023-10-13T05:20:23;4.50;;;4.10;;
4700;SDS011;8724;51.272;6.554;2023-10-13T05:23:12;6.20;;;4.90;;
4700;SDS011;8724;51.272;6.554;2023-10-13T05:26:00;6.57;;;4.43;;
4700;SDS011;8724;51.272;6.554;2023-10-13T05:28:47;5.53;;;4.17;;
4700;SDS011;8724;51.272;6.554;2023-10-13T05:31:52;10.20;;;4.93;;
4700;SDS011;8724;51.272;6.554;2023-10-13T05:34:38;4.63;;;4.03;;
4700;SDS011;8724;51.272;6.554;2023-10-13T05:37:24;6.30;;;4.93;;
4700;SDS011;8724;51.272;6.554;2023-10-13T05:40:11;7.57;;;5.30;;
4700;SDS011;8724;51.272;6.554;2023-10-13T05:42:57;7.87;;;4.77;;
4700;SDS011;8724;51.272;6.554;2023-10-13T05:45:42;8.60;;;4.87;;
4700;SDS011;8724;51.272;6.554;2023-10-13T05:48:24;11.23;;;4.63;;
4700;SDS011;8724;51.272;6.554;2023-10-13T05:51:09;6.27;;;4.23;;
4700;SDS011;8724;51.272;6.554;2023-10-13T05:53:54;8.50;;;4.83;;
4700;SDS011;8724;51.272;6.554;2023-10-13T05:56:42;9.77;;;5.07;;
4700;SDS011;8724;51.272;6.554;2023-10-13T05:59:29;7.60;;;4.50;;
4700;SDS011;8724;51.272;6.554;2023-10-13T06:02:16;5.90;;;4.10;;
4700;SDS011;8724;51.272;6.554;2023-10-13T06:05:04;10.63;;;4.13;;
4700;SDS011;8724;51.272;6.554;2023-10-13T06:07:50;13.20;;;5.13;;
4700;SDS011;8724;51.272;6.554;2023-10-13T06:10:37;7.70;;;4.10;;
4700;SDS011;8724;51.272;6.554;2023-10-13T06:13:24;9.17;;;4.57;;
4700;SDS011;8724;51.272;6.554;2023-10-13T06:16:11;10.97;;;4.63;;
4700;SDS011;8724;51.272;6.554;2023-10-13T06:18:58;11.37;;;5.10;;
4700;SDS011;8724;51.272;6.554;2023-10-13T06:21:45;7.53;;;4.30;;
4700;SDS011;8724;51.272;6.554;2023-10-13T06:24:31;6.10;;;3.13;;
4700;SDS011;8724;51.272;6.554;2023-10-13T06:27:17;9.90;;;3.83;;
4700;SDS011;8724;51.272;6.554;2023-10-13T06:30:11;6.10;;;3.40;;
4700;SDS011;8724;51.272;6.554;2023-10-13T06:32:40;10.37;;;4.23;;
4700;SDS011;8724;51.272;6.554;2023-10-13T06:35:08;5.30;;;4.00;;
4700;SDS011;8724;51.272;6.554;2023-10-13T06:37:45;6.83;;;4.00;;
4700;SDS011;8724;51.272;6.554;2023-10-13T06:40:14;13.80;;;5.50;;
4700;SDS011;8724;51.272;6.554;2023-10-13T06:42:51;8.63;;;4.20;;
4700;SDS011;8724;51.272;6.554;2023-10-13T06:45:23;6.20;;;4.47;;
4700;SDS011;8724;51.272;6.554;2023-10-13T06:47:54;6.13;;;3.63;;
4700;SDS011;8724;51.272;6.554;2023-10-13T06:50:25;4.10;;;3.67;;
4700;SDS011;8724;51.272;6.554;2023-10-13T06:52:55;9.37;;;3.87;;
4700;SDS011;8724;51.272;6.554;2023-10-13T06:55:23;11.00;;;4.57;;
4700;SDS011;8724;51.272;6.554;2023-10-13T06:57:54;7.63;;;3.73;;
4700;SDS011;8724;51.272;6.554;2023-10-13T07:00:28;8.57;;;4.50;;
4700;SDS011;8724;51.272;6.554;2023-10-13T07:02:59;13.13;;;4.33;;
4700;SDS011;8724;51.272;6.554;2023-10-13T07:05:37;8.40;;;3.93;;
4700;SDS011;8724;51.272;6.554;2023-10-13T07:08:06;7.53;;;3.90;;
4700;SDS011;8724;51.272;6.554;2023-10-13T07:10:35;7.40;;;4.03;;
4700;SDS011;8724;51.272;6.554;2023-10-13T07:13:15;6.20;;;4.10;;
4700;SDS011;8724;51.272;6.554;2023-10-13T07:15:45;8.10;;;5.10;;
4700;SDS011;8724;51.272;6.554;2023-10-13T07:18:14;7.80;;;3.60;;
4700;SDS011;8724;51.272;6.554;2023-10-13T07:20:44;5.53;;;3.53;;
4700;SDS011;8724;51.272;6.554;2023-10-13T07:23:13;7.50;;;4.20;;
4700;SDS011;8724;51.272;6.554;2023-10-13T07:25:53;5.60;;;3.20;;
4700;SDS011;8724;51.272;6.554;2023-10-13T07:28:24;4.57;;;3.13;;
4700;SDS011;8724;51.272;6.554;2023-10-13T07:30:53;6.60;;;3.37;;
4700;SDS011;8724;51.272;6.554;2023-10-13T07:33:49;5.93;;;3.57;;
4700;SDS011;8724;51.272;6.554;2023-10-13T07:36:17;6.30;;;4.10;;
4700;SDS011;8724;51.272;6.554;2023-10-13T07:38:54;6.37;;;4.13;;
4700;SDS011;8724;51.272;6.554;2023-10-13T07:41:49;11.00;;;4.90;;
4700;SDS011;8724;51.272;6.554;2023-10-13T07:44:21;6.50;;;4.07;;
4700;SDS011;8724;51.272;6.554;2023-10-13T07:46:55;6.17;;;3.87;;
4700;SDS011;8724;51.272;6.554;2023-10-13T07:49:29;9.90;;;4.87;;
4700;SDS011;8724;51.272;6.554;2023-10-13T07:51:59;6.33;;;4.37;;
4700;SDS011;8724;51.272;6.554;2023-10-13T07:54:42;6.80;;;4.70;;
4700;SDS011;8724;51.272;6.554;2023-10-13T07:57:14;10.43;;;4.17;;
4700;SDS011;8724;51.272;6.554;2023-10-13T07:59:43;8.73;;;4.90;;
4700;SDS011;8724;51.272;6.554;2023-10-13T08:02:17;8.90;;;5.00;;
4700;SDS011;8724;51.272;6.554;2023-10-13T08:05:14;11.57;;;5.80;;
4700;SDS011;8724;51.272;6.554;2023-10-13T08:07:50;7.13;;;4.60;;
4700;SDS011;8724;51.272;6.554;2023-10-13T08:10:19;8.20;;;5.43;;
4700;SDS011;8724;51.272;6.554;2023-10-13T08:12:56;7.40;;;5.43;;
4700;SDS011;8724;51.272;6.554;2023-10-13T08:15:25;10.67;;;4.33;;
4700;SDS011;8724;51.272;6.554;2023-10-13T08:17:59;12.77;;;5.30;;
4700;SDS011;8724;51.272;6.554;2023-10-13T08:20:39;14.80;;;4.93;;
4700;SDS011;8724;51.272;6.554;2023-10-13T08:23:07;10.27;;;5.87;;
4700;SDS011;8724;51.272;6.554;2023-10-13T08:25:40;11.60;;;4.80;;
4700;SDS011;8724;51.272;6.554;2023-10-13T08:28:34;9.07;;;4.97;;
4700;SDS011;8724;51.272;6.554;2023-10-13T08:31:23;7.20;;;4.77;;
4700;SDS011;8724;51.272;6.554;2023-10-13T08:33:53;8.63;;;4.57;;
4700;SDS011;8724;51.272;6.554;2023-10-13T08:36:34;8.03;;;5.03;;
4700;SDS011;8724;51.272;6.554;2023-10-13T08:39:04;9.40;;;5.90;;
4700;SDS011;8724;51.272;6.554;2023-10-13T08:42:03;10.80;;;5.20;;
4700;SDS011;8724;51.272;6.554;2023-10-13T08:44:39;11.73;;;6.07;;
4700;SDS011;8724;51.272;6.554;2023-10-13T08:47:13;12.37;;;5.87;;
4700;SDS011;8724;51.272;6.554;2023-10-13T08:49:45;11.23;;;5.47;;
4700;SDS011;8724;51.272;6.554;2023-10-13T08:52:20;11.87;;;5.57;;
4700;SDS011;8724;51.272;6.554;2023-10-13T08:55:09;19.23;;;5.63;;
4700;SDS011;8724;51.272;6.554;2023-10-13T08:57:57;11.87;;;5.13;;
4700;SDS011;8724;51.272;6.554;2023-10-13T09:00:29;12.70;;;5.90;;
4700;SDS011;8724;51.272;6.554;2023-10-13T09:03:13;10.00;;;5.37;;
4700;SDS011;8724;51.272;6.554;2023-10-13T09:05:56;8.50;;;5.50;;
4700;SDS011;8724;51.272;6.554;2023-10-13T09:08:29;14.33;;;5.67;;
4700;SDS011;8724;51.272;6.554;2023-10-13T09:11:10;12.00;;;5.07;;
4700;SDS011;8724;51.272;6.554;2023-10-13T09:13:39;13.23;;;5.60;;
4700;SDS011;8724;51.272;6.554;2023-10-13T09:16:13;11.47;;;5.90;;
4700;SDS011;8724;51.272;6.554;2023-10-13T09:18:49;10.27;;;4.77;;
4700;SDS011;8724;51.272;6.554;2023-10-13T09:21:18;11.70;;;5.73;;
4700;SDS011;8724;51.272;6.554;2023-10-13T09:24:06;12.20;;;5.57;;
4700;SDS011;8724;51.272;6.554;2023-10-13T09:26:49;8.90;;;5.13;;
4700;SDS011;8724;51.272;6.554;2023-10-13T09:29:22;7.50;;;5.10;;
4700;SDS011;8724;51.272;6.554;2023-10-13T09:32:01;8.10;;;5.27;;
4700;SDS011;8724;51.272;6.554;2023-10-13T09:34:31;8.60;;;5.30;;
4700;SDS011;8724;51.272;6.554;2023-10-13T09:37:02;9.07;;;4.83;;
4700;SDS011;8724;51.272;6.554;2023-10-13T09:39:32;8.33;;;5.63;;
4700;SDS011;8724;51.272;6.554;2023-10-13T09:42:11;12.33;;;6.00;;
4700;SDS011;8724;51.272;6.554;2023-10-13T09:44:42;8.93;;;5.37;;
4700;SDS011;8724;51.272;6.554;2023-10-13T09:47:19;6.40;;;4.60;;
4700;SDS011;8724;51.272;6.554;2023-10-13T09:49:59;9.30;;;5.87;;
4700;SDS011;8724;51.272;6.554;2023-10-13T09:52:32;10.50;;;6.30;;
4700;SDS011;8724;51.272;6.554;2023-10-13T09:55:09;6.27;;;5.27;;
4700;SDS011;8724;51.272;6.554;2023-10-13T09:57:47;8.53;;;5.80;;
4700;SDS011;8724;51.272;6.554;2023-10-13T10:00:25;9.67;;;5.93;;
4700;SDS011;8724;51.272;6.554;2023-10-13T10:03:13;9.23;;;5.80;;
4700;SDS011;8724;51.272;6.554;2023-10-13T10:06:02;8.33;;;5.80;;
4700;SDS011;8724;51.272;6.554;2023-10-13T10:08:32;9.20;;;5.90;;
4700;SDS011;8724;51.272;6.554;2023-10-13T10:11:04;8.93;;;5.57;;
4700;SDS011;8724;51.272;6.554;2023-10-13T10:13:46;12.83;;;7.10;;
4700;SDS011;8724;51.272;6.554;2023-10-13T10:16:29;7.63;;;5.37;;
4700;SDS011;8724;51.272;6.554;2023-10-13T10:19:08;10.77;;;6.80;;
4700;SDS011;8724;51.272;6.554;2023-10-13T10:21:37;10.07;;;6.80;;
4700;SDS011;8724;51.272;6.554;2023-10-13T10:24:14;9.10;;;6.33;;
4700;SDS011;8724;51.272;6.554;2023-10-13T10:26:52;14.60;;;7.00;;
4700;SDS011;8724;51.272;6.554;2023-10-13T10:29:20;15.87;;;6.60;;
4700;SDS011;8724;51.272;6.554;2023-10-13T10:31:48;12.33;;;6.40;;
4700;SDS011;8724;51.272;6.554;2023-10-13T10:34:17;13.10;;;7.10;;
4700;SDS011;8724;51.272;6.554;2023-10-13T10:36:46;11.50;;;6.77;;
4700;SDS011;8724;51.272;6.554;2023-10-13T10:39:18;12.23;;;7.47;;
4700;SDS011;8724;51.272;6.554;2023-10-13T10:41:47;8.27;;;6.60;;
4700;SDS011;8724;51.272;6.554;2023-10-13T10:44:20;15.67;;;6.93;;
4700;SDS011;8724;51.272;6.554;2023-10-13T10:47:10;9.60;;;6.53;;
4700;SDS011;8724;51.272;6.554;2023-10-13T10:49:46;13.20;;;7.03;;
4700;SDS011;8724;51.272;6.554;2023-10-13T10:52:16;8.60;;;7.10;;
4700;SDS011;8724;51.272;6.554;2023-10-13T10:54:57;9.30;;;6.97;;
4700;SDS011;8724;51.272;6.554;2023-10-13T10:57:26;8.13;;;6.33;;
4700;SDS011;8724;51.272;6.554;2023-10-13T11:00:00;10.50;;;6.97;;
4700;SDS011;8724;51.272;6.554;2023-10-13T11:02:37;13.90;;;7.10;;
4700;SDS011;8724;51.272;6.554;2023-10-13T11:05:06;8.63;;;5.90;;
4700;SDS011;8724;51.272;6.554;2023-10-13T11:07:36;9.40;;;5.63;;
4700;SDS011;8724;51.272;6.554;2023-10-13T11:10:07;17.20;;;7.20;;
4700;SDS011;8724;51.272;6.554;2023-10-13T11:12:53;14.43;;;7.60;;
4700;SDS011;8724;51.272;6.554;2023-10-13T11:15:23;11.70;;;6.30;;
4700;SDS011;8724;51.272;6.554;2023-10-13T11:18:00;9.70;;;6.43;;
4700;SDS011;8724;51.272;6.554;2023-10-13T11:20:32;11.40;;;7.17;;
4700;SDS011;8724;51.272;6.554;2023-10-13T11:23:10;12.33;;;7.30;;
4700;SDS011;8724;51.272;6.554;2023-10-13T11:25:39;9.00;;;6.30;;
4700;SDS011;8724;51.272;6.554;2023-10-13T11:28:10;10.70;;;6.50;;
4700;SDS011;8724;51.272;6.554;2023-10-13T11:30:47;14.90;;;6.00;;
4700;SDS011;8724;51.272;6.554;2023-10-13T11:33:17;9.57;;;6.50;;
4700;SDS011;8724;51.272;6.554;2023-10-13T11:35:50;10.00;;;5.60;;
4700;SDS011;8724;51.272;6.554;2023-10-13T11:38:24;14.03;;;6.63;;
4700;SDS011;8724;51.272;6.554;2023-10-13T11:40:53;18.40;;;7.27;;
4700;SDS011;8724;51.272;6.554;2023-10-13T11:43:41;13.17;;;7.10;;
4700;SDS011;8724;51.272;6.554;2023-10-13T11:46:32;8.93;;;6.20;;
4700;SDS011;8724;51.272;6.554;2023-10-13T11:49:22;12.70;;;6.50;;
4700;SDS011;8724;51.272;6.554;2023-10-13T11:52:00;22.47;;;6.80;;
4700;SDS011;8724;51.272;6.554;2023-10-13T11:54:51;11.60;;;6.40;;
4700;SDS011;8724;51.272;6.554;2023-10-13T11:57:19;12.37;;;6.60;;
4700;SDS011;8724;51.272;6.554;2023-10-13T11:59:48;10.93;;;6.33;;
4700;SDS011;8724;51.272;6.554;2023-10-13T12:02:43;5.97;;;5.10;;
4700;SDS011;8724;51.272;6.554;2023-10-13T12:05:31;22.53;;;5.97;;
4700;SDS011;8724;51.272;6.554;2023-10-13T12:08:15;16.10;;;5.90;;
4700;SDS011;8724;51.272;6.554;2023-10-13T12:10:49;12.90;;;5.77;;
4700;SDS011;8724;51.272;6.554;2023-10-13T12:13:26;14.13;;;5.37;;
4700;SDS011;8724;51.272;6.554;2023-10-13T12:15:55;11.00;;;6.00;;
4700;SDS011;8724;51.272;6.554;2023-10-13T12:18:24;11.30;;;5.50;;
4700;SDS011;8724;51.272;6.554;2023-10-13T12:20:54;18.30;;;6.30;;
4700;SDS011;8724;51.272;6.554;2023-10-13T12:23:23;11.30;;;5.20;;
4700;SDS011;8724;51.272;6.554;2023-10-13T12:25:58;17.37;;;6.13;;
4700;SDS011;8724;51.272;6.554;2023-10-13T12:28:27;10.90;;;5.37;;
4700;SDS011;8724;51.272;6.554;2023-10-13T12:31:02;13.20;;;6.27;;
4700;SDS011;8724;51.272;6.554;2023-10-13T12:33:35;11.23;;;5.70;;
4700;SDS011;8724;51.272;6.554;2023-10-13T12:36:07;14.13;;;5.73;;
4700;SDS011;8724;51.272;6.554;2023-10-13T12:38:42;13.90;;;5.57;;
4700;SDS011;8724;51.272;6.554;2023-10-13T12:41:42;16.57;;;6.13;;
4700;SDS011;8724;51.272;6.554;2023-10-13T12:44:28;16.63;;;5.50;;
4700;SDS011;8724;51.272;6.554;2023-10-13T12:47:16;15.50;;;6.37;;
4700;SDS011;8724;51.272;6.554;2023-10-13T12:50:03;17.20;;;5.90;;
4700;SDS011;8724;51.272;6.554;2023-10-13T12:52:40;12.57;;;5.53;;
4700;SDS011;8724;51.272;6.554;2023-10-13T12:55:12;10.57;;;5.90;;
4700;SDS011;8724;51.272;6.554;2023-10-13T12:57:45;22.60;;;6.30;;
4700;SDS011;8724;51.272;6.554;2023-10-13T13:00:14;18.00;;;5.63;;
4700;SDS011;8724;51.272;6.554;2023-10-13T13:02:50;15.00;;;6.57;;
4700;SDS011;8724;51.272;6.554;2023-10-13T13:05:24;16.30;;;5.97;;
4700;SDS011;8724;51.272;6.554;2023-10-13T13:07:56;11.30;;;5.17;;
4700;SDS011;8724;51.272;6.554;2023-10-13T13:10:24;13.13;;;6.70;;
4700;SDS011;8724;51.272;6.554;2023-10-13T13:13:02;13.13;;;5.97;;
4700;SDS011;8724;51.272;6.554;2023-10-13T13:15:31;9.60;;;5.50;;
4700;SDS011;8724;51.272;6.554;2023-10-13T13:17:59;16.03;;;6.07;;
4700;SDS011;8724;51.272;6.554;2023-10-13T13:20:38;16.00;;;6.00;;
4700;SDS011;8724;51.272;6.554;2023-10-13T13:23:20;12.50;;;5.30;;
4700;SDS011;8724;51.272;6.554;2023-10-13T13:25:52;16.47;;;6.87;;
4700;SDS011;8724;51.272;6.554;2023-10-13T13:28:20;15.63;;;6.20;;
4700;SDS011;8724;51.272;6.554;2023-10-13T13:30:50;9.63;;;4.83;;
4700;SDS011;8724;51.272;6.554;2023-10-13T13:33:21;10.30;;;5.87;;
4700;SDS011;8724;51.272;6.554;2023-10-13T13:35:54;16.73;;;5.77;;
4700;SDS011;8724;51.272;6.554;2023-10-13T13:38:26;22.73;;;7.40;;
4700;SDS011;8724;51.272;6.554;2023-10-13T13:40:58;19.53;;;6.70;;
4700;SDS011;8724;51.272;6.554;2023-10-13T13:43:29;11.63;;;5.60;;
4700;SDS011;8724;51.272;6.554;2023-10-13T13:46:05;15.73;;;5.57;;
4700;SDS011;8724;51.272;6.554;2023-10-13T13:48:36;12.23;;;5.87;;
4700;SDS011;8724;51.272;6.554;2023-10-13T13:51:05;14.90;;;6.10;;
4700;SDS011;8724;51.272;6.554;2023-10-13T13:53:40;12.63;;;5.43;;
4700;SDS011;8724;51.272;6.554;2023-10-13T13:56:12;11.83;;;5.37;;
4700;SDS011;8724;51.272;6.554;2023-10-13T13:58:42;16.57;;;6.83;;
4700;SDS011;8724;51.272;6.554;2023-10-13T14:01:10;13.50;;;6.07;;
4700;SDS011;8724;51.272;6.554;2023-10-13T14:03:41;23.70;;;6.43;;
4700;SDS011;8724;51.272;6.554;2023-10-13T14:06:14;11.87;;;6.80;;
4700;SDS011;8724;51.272;6.554;2023-10-13T14:08:49;16.07;;;5.20;;
4700;SDS011;8724;51.272;6.554;2023-10-13T14:11:21;15.87;;;5.90;;
4700;SDS011;8724;51.272;6.554;2023-10-13T14:14:05;14.70;;;5.47;;
4700;SDS011;8724;51.272;6.554;2023-10-13T14:16:38;19.03;;;6.10;;
4700;SDS011;8724;51.272;6.554;2023-10-13T14:19:11;17.37;;;5.20;;
4700;SDS011;8724;51.272;6.554;2023-10-13T14:21:41;11.30;;;4.83;;
4700;SDS011;8724;51.272;6.554;2023-10-13T14:24:09;12.80;;;5.60;;
4700;SDS011;8724;51.272;6.554;2023-10-13T14:26:43;19.30;;;6.20;;
4700;SDS011;8724;51.272;6.554;2023-10-13T14:29:12;10.20;;;5.30;;
4700;SDS011;8724;51.272;6.554;2023-10-13T14:31:42;6.33;;;4.47;;
4700;SDS011;8724;51.272;6.554;2023-10-13T14:34:11;13.30;;;5.43;;
4700;SDS011;8724;51.272;6.554;2023-10-13T14:36:40;13.03;;;5.47;;
4700;SDS011;8724;51.272;6.554;2023-10-13T14:39:14;15.70;;;5.63;;
4700;SDS011;8724;51.272;6.554;2023-10-13T14:41:43;10.43;;;4.53;;
4700;SDS011;8724;51.272;6.554;2023-10-13T14:44:14;12.63;;;5.57;;
4700;SDS011;8724;51.272;6.554;2023-10-13T14:46:42;12.27;;;4.80;;
4700;SDS011;8724;51.272;6.554;2023-10-13T14:49:10;11.37;;;5.00;;
4700;SDS011;8724;51.272;6.554;2023-10-13T14:51:42;18.17;;;5.10;;
4700;SDS011;8724;51.272;6.554;2023-10-13T14:54:10;10.97;;;5.37;;
4700;SDS011;8724;51.272;6.554;2023-10-13T14:56:38;18.93;;;6.17;;
4700;SDS011;8724;51.272;6.554;2023-10-13T14:59:08;14.63;;;5.10;;
4700;SDS011;8724;51.272;6.554;2023-10-13T15:01:43;9.77;;;5.30;;
4700;SDS011;8724;51.272;6.554;2023-10-13T15:04:13;9.70;;;5.37;;
4700;SDS011;8724;51.272;6.554;2023-10-13T15:06:42;16.53;;;6.90;;
4700;SDS011;8724;51.272;6.554;2023-10-13T15:09:10;13.03;;;5.13;;
4700;SDS011;8724;51.272;6.554;2023-10-13T15:11:39;9.60;;;4.97;;
4700;SDS011;8724;51.272;6.554;2023-10-13T15:14:15;8.27;;;4.67;;
4700;SDS011;8724;51.272;6.554;2023-10-13T15:16:47;10.27;;;5.00;;
4700;SDS011;8724;51.272;6.554;2023-10-13T15:19:16;10.00;;;5.07;;
4700;SDS011;8724;51.272;6.554;2023-10-13T15:21:45;10.00;;;5.67;;
4700;SDS011;8724;51.272;6.554;2023-10-13T15:24:17;9.53;;;5.00;;
4700;SDS011;8724;51.272;6.554;2023-10-13T15:26:53;10.90;;;5.43;;
4700;SDS011;8724;51.272;6.554;2023-10-13T15:29:29;13.63;;;5.30;;
4700;SDS011;8724;51.272;6.554;2023-10-13T15:32:02;10.13;;;5.20;;
4700;SDS011;8724;51.272;6.554;2023-10-13T15:34:48;9.83;;;5.10;;
4700;SDS011;8724;51.272;6.554;2023-10-13T15:37:17;11.33;;;5.13;;
4700;SDS011;8724;51.272;6.554;2023-10-13T15:39:46;11.63;;;5.17;;
4700;SDS011;8724;51.272;6.554;2023-10-13T15:42:14;12.47;;;5.70;;
4700;SDS011;8724;51.272;6.554;2023-10-13T15:44:44;8.30;;;5.20;;
4700;SDS011;8724;51.272;6.554;2023-10-13T15:47:12;8.90;;;5.83;;
4700;SDS011;8724;51.272;6.554;2023-10-13T15:49:43;8.80;;;4.80;;
4700;SDS011;8724;51.272;6.554;2023-10-13T15:52:11;8.40;;;5.57;;
4700;SDS011;8724;51.272;6.554;2023-10-13T15:54:43;6.73;;;4.73;;
4700;SDS011;8724;51.272;6.554;2023-10-13T15:57:11;8.60;;;4.33;;
4700;SDS011;8724;51.272;6.554;2023-10-13T15:59:43;12.17;;;5.07;;
4700;SDS011;8724;51.272;6.554;2023-10-13T16:02:13;9.67;;;4.70;;